MET'MAP v2.0
soon released !

Expected late october,
this new version will be
more efficient, smarter,
and hosted on a brand new
server x3 powerfull...
...and still free !


Not compatible ?
Try the mobile version !

LOG IN : | Subscribe | Disclaimer | Who is Orbifly ? |
ICAO code :
Legend : VFR Marginal VFR IFR Intensive IFR Very Intensive IFR
Visi :
Ceiling :
>= 8 km
>= 3000ft
5 to 8 km
1000 to 3000 ft
1500m to 5 km
500 to 1000 ft
800 to 1500m
200 to 500 ft
< 800m
< 200 ft

METAR - LOWI Innsbruck - 02 Jun 2020 05:06 UTC
Data Sources :     NOAA   


- Airport Elevation : 1906 ft
- IATA code : INN
- No reported NOTAMs.


LOWI - Innsbruck

Latest METAR recorded : 2015/08/11 07:50 LOWI 110750Z VRB01KT 9999 FEW040 23/17 Q1017 NOSIG
TAF TAF LOWI
Valid from the 02 at 00:00 until the 03 at 00:00 UTC


012315Z 0200/0224 27003KT 9999 FEW070 TX25/0214Z TN09/0204Z
BECMG 0210/0212 08010KT
BECMG 0210/0212 27003KT

Source NOAA


MET'MAP, your aeronautical weather chart ! - Copyright ORBIFLY December 2007

Programming & Development : Alexandra Zaïnal
Co-Developer : Marc-Olivier Méhu
Technical & hardware support : Manuel Goepfert
Concept & Financing : Baudouin d'Aumeries